Time;durP1;ratioP1;P1;durP2;ratioP2;P2;SDS_P1;SDS_P2;PMS_P1;PMS_P2;Temp;Humidity;BMP_temperature;BMP_pressure;BME280_temperature;BME280_humidity;BME280_pressure;Samples;Min_cycle;Max_cycle;Signal;HPM_P1;HPM_P2
2022/10/03 00:00:15;;;;;;;423.15;384.90;;;;;;;7.93;100.00;97718.44;7386338;19;20252;-67
2022/10/03 00:03:24;;;;;;;412.48;375.83;;;;;;;8.01;100.00;97724.94;7389458;19;20010;-66
2022/10/03 00:06:08;;;;;;;416.35;379.55;;;;;;;7.86;100.00;97717.97;7390237;19;20010;-76
2022/10/03 00:09:06;;;;;;;417.23;380.52;;;;;;;7.90;100.00;97713.41;7388118;19;20038;-66
2022/10/03 00:11:53;;;;;;;432.88;393.13;;;;;;;7.79;100.00;97711.41;7384441;19;20119;-69
2022/10/03 00:14:32;;;;;;;422.80;385.23;;;;;;;7.77;100.00;97715.91;7389921;19;20022;-66
2022/10/03 00:17:10;;;;;;;420.70;382.48;;;;;;;7.85;100.00;97712.81;7383939;19;20021;-67
2022/10/03 00:19:52;;;;;;;409.02;372.85;;;;;;;7.92;100.00;97704.53;7389281;19;20011;-69
2022/10/03 00:22:37;;;;;;;424.25;385.88;;;;;;;7.66;100.00;97706.94;7387215;19;20020;-65
2022/10/03 00:25:33;;;;;;;430.83;393.48;;;;;;;7.93;100.00;97705.34;7389763;19;20474;-63
2022/10/03 00:28:21;;;;;;;422.50;386.02;;;;;;;7.84;100.00;97691.06;7388963;19;20014;-64
2022/10/03 00:31:09;;;;;;;439.75;400.15;;;;;;;7.84;100.00;97701.53;7387278;19;20039;-67
2022/10/03 00:33:56;;;;;;;424.25;386.92;;;;;;;7.70;100.00;97688.34;7387432;19;20035;-67
2022/10/03 00:36:37;;;;;;;404.17;368.00;;;;;;;7.85;100.00;97695.34;7387231;19;20463;-61
2022/10/03 00:39:34;;;;;;;422.92;386.27;;;;;;;7.86;100.00;97699.66;7388820;19;20015;-62
2022/10/03 00:42:34;;;;;;;426.90;389.80;;;;;;;7.96;100.00;97703.41;7387910;19;20011;-64
2022/10/03 00:45:37;;;;;;;433.05;394.90;;;;;;;8.08;100.00;97684.34;7388577;19;20019;-65
2022/10/03 00:48:40;;;;;;;426.85;390.13;;;;;;;7.89;100.00;97701.22;7382744;19;20044;-70
2022/10/03 00:51:36;;;;;;;447.17;406.88;;;;;;;7.94;100.00;97699.22;7385220;19;21017;-66
2022/10/03 00:54:23;;;;;;;430.55;392.25;;;;;;;8.02;100.00;97679.47;7387387;19;20006;-77
2022/10/03 00:57:22;;;;;;;426.90;388.63;;;;;;;8.07;100.00;97659.09;7386210;19;20074;-68
2022/10/03 01:00:09;;;;;;;425.70;387.88;;;;;;;8.13;100.00;97678.84;7388059;19;20039;-67
2022/10/03 01:03:03;;;;;;;450.67;412.05;;;;;;;7.88;100.00;97681.22;7390275;19;20011;-76
2022/10/03 01:05:55;;;;;;;447.08;408.63;;;;;;;7.87;100.00;97676.94;7386582;19;20461;-67
2022/10/03 01:08:47;;;;;;;455.20;414.77;;;;;;;8.06;100.00;97685.38;7390792;19;20015;-66
2022/10/03 01:11:32;;;;;;;423.38;384.73;;;;;;;8.05;100.00;97676.66;7387372;19;20010;-76
2022/10/03 01:14:21;;;;;;;437.80;399.27;;;;;;;7.89;100.00;97689.00;7388724;19;20010;-66
2022/10/03 01:17:08;;;;;;;430.80;390.85;;;;;;;7.80;100.00;97686.91;7387115;19;20109;-66
2022/10/03 01:20:10;;;;;;;431.83;393.70;;;;;;;7.71;100.00;97683.94;7385674;19;20010;-66
2022/10/03 01:23:06;;;;;;;445.33;406.40;;;;;;;7.76;100.00;97674.09;7386724;19;20026;-66
2022/10/03 01:25:43;;;;;;;437.33;398.85;;;;;;;7.71;100.00;97681.31;7386099;19;20410;-67
2022/10/03 01:31:27;;;;;;;422.55;385.23;;;;;;;7.83;100.00;97684.09;7386863;19;20010;-66
2022/10/03 01:34:01;;;;;;;;;;;;;;;7.61;100.00;97675.78;7382994;19;20119;-64
2022/10/03 01:36:37;;;;;;;426.40;389.03;;;;;;;7.61;100.00;97681.00;7384471;19;19929;-66
2022/10/03 01:39:16;;;;;;;450.48;411.38;;;;;;;7.78;100.00;97678.31;7384841;19;20257;-75
2022/10/03 01:41:57;;;;;;;454.88;416.60;;;;;;;7.66;100.00;97680.75;7389264;19;20053;-67
2022/10/03 01:44:40;;;;;;;442.52;402.45;;;;;;;7.68;100.00;97674.50;7379992;19;20029;-71
2022/10/03 01:47:26;;;;;;;450.85;412.02;;;;;;;7.56;100.00;97674.34;7386318;19;20340;-61
2022/10/03 01:50:07;;;;;;;437.70;397.27;;;;;;;7.46;100.00;97675.84;7381874;19;20018;-67
2022/10/03 01:52:46;;;;;;;445.90;406.95;;;;;;;7.39;100.00;97672.72;7388386;19;20003;-64
2022/10/03 01:55:28;;;;;;;460.30;419.38;;;;;;;7.56;100.00;97675.22;7381073;19;20043;-64
2022/10/03 01:58:08;;;;;;;431.35;393.83;;;;;;;7.36;100.00;97680.72;7383320;19;20030;-67
2022/10/03 02:00:47;;;;;;;458.10;417.02;;;;;;;7.63;100.00;97678.31;7382464;19;20010;-61
2022/10/03 02:03:25;;;;;;;440.88;403.05;;;;;;;7.58;100.00;97677.75;7385292;19;20034;-67
2022/10/03 02:06:05;;;;;;;445.77;405.45;;;;;;;7.30;100.00;97678.47;7385358;19;20362;-66
2022/10/03 02:08:54;;;;;;;425.23;388.05;;;;;;;7.40;100.00;97673.56;7390076;19;20328;-66
2022/10/03 02:11:34;;;;;;;443.08;403.77;;;;;;;7.49;100.00;97678.25;7382791;19;20025;-68
2022/10/03 02:14:22;;;;;;;426.88;389.38;;;;;;;7.33;100.00;97682.69;7389032;19;20022;-69
2022/10/03 02:17:06;;;;;;;424.75;387.38;;;;;;;7.53;100.00;97677.16;7385091;19;20417;-62
2022/10/03 02:19:47;;;;;;;440.23;402.90;;;;;;;7.30;100.00;97681.09;7385908;19;20017;-67
2022/10/03 02:22:31;;;;;;;447.42;409.15;;;;;;;7.49;100.00;97692.19;7386545;19;20018;-65
2022/10/03 02:25:29;;;;;;;447.10;406.88;;;;;;;7.36;100.00;97693.00;7383642;19;20089;-77
2022/10/03 02:28:33;;;;;;;424.45;386.88;;;;;;;7.53;100.00;97688.47;7385301;19;20006;-69
2022/10/03 02:31:47;;;;;;;435.40;397.20;;;;;;;7.61;100.00;97693.28;7383958;19;20010;-66
2022/10/03 02:34:44;;;;;;;456.02;417.55;;;;;;;7.50;100.00;97698.28;7383512;19;20405;-69
2022/10/03 02:37:45;;;;;;;434.75;396.73;;;;;;;7.56;100.00;97690.91;7379514;19;20107;-64
2022/10/03 02:40:55;;;;;;;467.20;427.60;;;;;;;7.81;100.00;97693.84;7381558;19;20503;-67
2022/10/03 02:44:05;;;;;;;461.75;421.27;;;;;;;7.56;100.00;97685.69;7377064;19;20007;-67
2022/10/03 02:47:06;;;;;;;472.05;430.33;;;;;;;7.78;100.00;97691.41;7377920;19;20349;-67
2022/10/03 02:50:06;;;;;;;440.63;402.42;;;;;;;7.66;100.00;97681.63;7381619;19;20015;-68
2022/10/03 02:53:18;;;;;;;442.42;404.05;;;;;;;7.63;100.00;97683.53;7382272;19;20010;-69
2022/10/03 02:56:06;;;;;;;;;;;;;;;7.67;100.00;97688.53;7381652;19;20039;-65
2022/10/03 02:59:10;;;;;;;461.48;423.08;;;;;;;7.78;100.00;97686.16;7380479;19;19931;-67
2022/10/03 03:01:54;;;;;;;474.45;433.50;;;;;;;7.63;100.00;97684.41;7376974;19;20134;-66
2022/10/03 03:05:06;;;;;;;437.50;398.25;;;;;;;7.80;100.00;97686.91;7381803;19;20040;-66
2022/10/03 03:07:54;;;;;;;443.65;402.35;;;;;;;7.70;100.00;97677.88;7378964;19;20047;-66
2022/10/03 03:10:44;;;;;;;460.02;418.00;;;;;;;7.76;100.00;97669.69;7379920;19;20486;-65
2022/10/03 03:13:46;;;;;;;466.95;423.77;;;;;;;7.80;100.00;97678.22;7373202;19;20026;-66
2022/10/03 03:16:49;;;;;;;475.60;433.35;;;;;;;7.85;100.00;97689.25;7378985;19;20029;-68
2022/10/03 03:19:46;;;;;;;435.10;396.70;;;;;;;7.84;100.00;97674.47;7380171;19;20046;-66
2022/10/03 03:22:31;;;;;;;450.10;410.95;;;;;;;7.75;100.00;97677.59;7379996;19;20458;-65
2022/10/03 03:25:21;;;;;;;480.50;437.42;;;;;;;7.71;100.00;97666.47;7377135;19;20014;-63
2022/10/03 03:28:05;;;;;;;438.48;398.35;;;;;;;7.81;100.00;97665.03;7378122;19;20082;-67
2022/10/03 03:30:44;;;;;;;472.40;429.63;;;;;;;7.83;100.00;97671.00;7377851;19;20013;-67
2022/10/03 03:33:28;;;;;;;460.83;419.58;;;;;;;7.94;100.00;97671.22;7381897;19;20006;-66
2022/10/03 03:36:07;;;;;;;431.40;392.73;;;;;;;7.84;100.00;97670.09;7380318;19;20554;-61
2022/10/03 03:38:44;;;;;;;464.65;424.05;;;;;;;7.97;100.00;97668.41;7377330;19;20019;-58
2022/10/03 03:41:42;;;;;;;459.45;418.02;;;;;;;7.87;100.00;97659.41;7376123;19;20988;-66
2022/10/03 03:44:36;;;;;;;458.50;417.33;;;;;;;-142.36;100.00;58987.19;7373424;19;20066;-75
2022/10/03 03:47:27;;;;;;;456.65;417.70;;;;;;;7.53;100.00;97675.38;7377740;19;20015;-67
2022/10/03 03:50:21;;;;;;;446.42;406.92;;;;;;;7.41;100.00;97659.53;7378065;19;20006;-67
2022/10/03 03:53:08;;;;;;;464.42;421.67;;;;;;;7.58;100.00;97667.28;7376480;19;20479;-68
2022/10/03 03:56:01;;;;;;;450.65;410.88;;;;;;;7.59;100.00;97658.47;7379399;19;20119;-66
2022/10/03 03:58:39;;;;;;;443.52;403.98;;;;;;;7.44;100.00;97665.47;7382008;19;20074;-66
2022/10/03 04:01:30;;;;;;;446.52;407.48;;;;;;;7.66;100.00;97660.66;7380999;19;20046;-67
2022/10/03 04:04:14;;;;;;;450.55;411.42;;;;;;;7.46;100.00;97660.13;7383273;19;20014;-66
2022/10/03 04:06:59;;;;;;;458.92;417.52;;;;;;;7.46;100.00;97658.34;7379066;19;20010;-62
2022/10/03 04:09:58;;;;;;;462.33;422.70;;;;;;;7.59;100.00;97654.09;7382381;19;20469;-68
2022/10/03 04:12:45;;;;;;;486.17;444.35;;;;;;;7.45;100.00;97655.81;7382092;19;20466;-63
2022/10/03 04:15:36;;;;;;;480.35;436.88;;;;;;;7.70;100.00;97662.16;7377520;19;20035;-63
2022/10/03 04:21:35;;;;;;;463.45;422.58;;;;;;;7.43;100.00;97660.31;7382488;19;20339;-67
2022/10/03 04:24:42;;;;;;;471.77;429.70;;;;;;;7.43;100.00;97648.03;7384044;19;20108;-66
2022/10/03 04:27:32;;;;;;;480.23;436.60;;;;;;;7.53;100.00;97638.75;7386450;19;20039;-67
2022/10/03 04:30:13;;;;;;;438.38;398.77;;;;;;;7.45;100.00;97650.56;7393616;19;20078;-67
2022/10/03 04:33:21;;;;;;;450.35;410.45;;;;;;;7.50;100.00;97675.56;7392153;19;20010;-67
2022/10/03 04:36:17;;;;;;;433.38;394.35;;;;;;;7.38;100.00;97655.34;7389288;19;20927;-67
2022/10/03 04:38:56;;;;;;;485.15;441.88;;;;;;;7.21;100.00;97665.09;7380226;19;20010;-68
2022/10/03 04:41:39;;;;;;;467.98;426.77;;;;;;;7.50;100.00;97661.66;7390224;19;20496;-69
2022/10/03 04:44:22;;;;;;;478.23;433.63;;;;;;;7.24;100.00;97668.34;7383267;19;20089;-68
2022/10/03 04:46:57;;;;;;;469.23;427.17;;;;;;;7.16;100.00;97660.09;7388908;19;20025;-67
2022/10/03 04:49:37;;;;;;;465.20;422.55;;;;;;;7.25;100.00;97670.03;7385679;19;20007;-74
2022/10/03 04:52:20;;;;;;;461.65;420.02;;;;;;;7.30;100.00;97673.25;7385831;19;20054;-67
2022/10/03 04:55:03;;;;;;;472.90;429.80;;;;;;;7.25;100.00;97677.88;7382207;19;20014;-61
2022/10/03 04:57:46;;;;;;;467.83;425.08;;;;;;;7.47;100.00;97680.13;7387157;19;20014;-60
2022/10/03 05:00:28;;;;;;;470.30;426.98;;;;;;;7.32;100.00;97668.75;7382942;19;20041;-67
2022/10/03 05:03:09;;;;;;;446.30;406.73;;;;;;;7.35;100.00;97655.50;7387631;19;20482;-68
2022/10/03 05:05:57;;;;;;;465.45;421.25;;;;;;;7.33;100.00;97660.00;7381466;19;20014;-67
2022/10/03 05:08:40;;;;;;;470.55;427.20;;;;;;;7.38;100.00;97670.19;7389420;19;20025;-66
2022/10/03 05:11:22;;;;;;;454.48;411.90;;;;;;;7.33;100.00;97677.47;7388797;19;20036;-66
2022/10/03 05:14:06;;;;;;;484.15;440.38;;;;;;;7.34;100.00;97677.38;7386023;19;20007;-67
2022/10/03 05:16:45;;;;;;;484.73;441.27;;;;;;;7.35;100.00;97675.63;7389909;19;20229;-68
2022/10/03 05:19:45;;;;;;;468.95;427.73;;;;;;;7.32;100.00;97665.31;7389525;19;20015;-70
2022/10/03 05:22:29;;;;;;;479.02;436.90;;;;;;;7.46;100.00;97665.38;7388429;19;20034;-67
2022/10/03 05:25:14;;;;;;;475.95;433.42;;;;;;;7.44;100.00;97670.69;7387874;19;20010;-70
2022/10/03 05:27:53;;;;;;;472.50;430.38;;;;;;;7.39;100.00;97675.31;7387089;19;20007;-67
2022/10/03 05:30:43;;;;;;;464.50;422.23;;;;;;;7.46;100.00;97670.59;7388449;19;20038;-68
2022/10/03 05:33:31;;;;;;;475.20;431.48;;;;;;;7.45;100.00;97661.91;7382930;19;20006;-72
2022/10/03 05:36:14;;;;;;;462.52;421.15;;;;;;;7.51;100.00;97665.94;7388191;19;20471;-68
2022/10/03 05:39:09;;;;;;;468.58;425.88;;;;;;;7.57;100.00;97676.06;7376567;19;20347;-66
2022/10/03 05:41:42;;;;;;;465.23;423.52;;;;;;;7.63;100.00;97673.94;7385581;19;20035;-66
2022/10/03 05:44:20;;;;;;;453.60;411.45;;;;;;;7.64;100.00;97678.22;7384231;19;20529;-66
2022/10/03 05:47:04;;;;;;;430.25;391.92;;;;;;;7.62;100.00;97674.03;7386015;19;20010;-63
2022/10/03 05:50:00;;;;;;;451.30;410.05;;;;;;;7.61;100.00;97670.53;7389051;19;20010;-67
2022/10/03 05:52:52;;;;;;;472.67;431.63;;;;;;;7.60;100.00;97673.25;7383588;19;20304;-76
2022/10/03 05:55:35;;;;;;;457.92;417.42;;;;;;;7.69;100.00;97676.16;7387968;19;20422;-66
2022/10/03 05:58:33;;;;;;;483.08;438.60;;;;;;;7.48;100.00;97682.66;7384460;19;21112;-71
2022/10/03 06:01:26;;;;;;;495.92;452.13;;;;;;;7.44;100.00;97681.16;7384728;19;20021;-69
2022/10/03 06:04:15;;;;;;;448.50;407.38;;;;;;;7.44;100.00;97683.78;7390687;19;20014;-66
2022/10/03 06:07:03;;;;;;;464.17;422.30;;;;;;;7.49;100.00;97686.97;7390293;19;20010;-61
2022/10/03 06:10:20;;;;;;;473.65;430.58;;;;;;;7.84;100.00;97680.56;7384774;19;20030;-76
2022/10/03 06:13:05;;;;;;;463.88;421.15;;;;;;;7.54;100.00;97687.53;7382573;19;20014;-76
2022/10/03 06:15:41;;;;;;;;;;;;;;;7.47;100.00;97690.59;7388842;19;20010;-66
2022/10/03 06:18:33;;;;;;;483.23;438.67;;;;;;;7.36;100.00;97700.84;7382796;19;19914;-72
2022/10/03 06:21:32;;;;;;;480.80;437.88;;;;;;;7.28;100.00;97705.66;7387414;19;20023;-67
2022/10/03 06:24:35;;;;;;;475.55;433.30;;;;;;;7.05;100.00;97699.09;7381412;19;20030;-67
2022/10/03 06:27:54;;;;;;;489.85;446.77;;;;;;;6.99;100.00;97714.28;7385890;19;20021;-67
2022/10/03 06:30:43;;;;;;;477.38;435.88;;;;;;;6.94;100.00;97705.81;7381726;19;20502;-66
2022/10/03 06:33:50;;;;;;;475.33;432.13;;;;;;;7.02;100.00;97701.88;7376028;19;20017;-68
2022/10/03 06:36:39;;;;;;;495.52;452.20;;;;;;;6.92;100.00;97695.47;7377744;19;20018;-71
2022/10/03 06:39:50;;;;;;;504.35;460.90;;;;;;;7.03;100.00;97695.72;7380182;19;20014;-69
2022/10/03 06:42:31;;;;;;;490.75;447.52;;;;;;;7.25;100.00;97690.97;7381347;19;20011;-62
2022/10/03 06:45:44;;;;;;;509.05;463.83;;;;;;;7.31;100.00;97715.94;7379237;19;20050;-63
2022/10/03 06:48:33;;;;;;;503.85;458.88;;;;;;;6.94;100.00;97700.59;7374402;19;20015;-67
2022/10/03 06:51:40;;;;;;;486.10;443.83;;;;;;;7.05;100.00;97693.84;7380792;19;20062;-68
2022/10/03 06:54:56;;;;;;;482.65;441.48;;;;;;;6.95;100.00;97712.78;7381801;19;20117;-68
2022/10/03 06:57:49;;;;;;;468.00;426.38;;;;;;;6.99;100.00;97702.03;7383672;19;20025;-67
2022/10/03 07:00:23;;;;;;;481.60;439.08;;;;;;;7.00;100.00;97708.97;7381025;19;20018;-68
2022/10/03 07:03:25;;;;;;;466.02;424.98;;;;;;;6.98;100.00;97704.75;7380995;19;20062;-68
2022/10/03 07:06:14;;;;;;;476.60;434.60;;;;;;;7.06;100.00;97707.78;7383115;19;20050;-68
2022/10/03 07:09:28;;;;;;;475.45;433.55;;;;;;;7.10;100.00;97704.91;7379021;19;20098;-67
2022/10/03 07:12:36;;;;;;;481.00;439.38;;;;;;;7.22;100.00;97717.31;7380875;19;20948;-67
2022/10/03 07:15:44;;;;;;;489.73;445.92;;;;;;;7.22;100.00;97713.84;7383350;19;20066;-67
2022/10/03 07:19:00;;;;;;;529.85;483.67;;;;;;;7.26;100.00;97729.28;7374624;19;20007;-66
2022/10/03 07:21:55;;;;;;;497.05;452.65;;;;;;;7.23;100.00;97720.75;7382502;19;20031;-70
2022/10/03 07:25:24;;;;;;;495.42;451.80;;;;;;;7.26;100.00;97707.50;7375751;19;20014;-75
2022/10/03 07:28:30;;;;;;;488.80;444.60;;;;;;;7.50;100.00;97727.91;7378204;19;20021;-67
2022/10/03 07:31:15;;;;;;;476.00;432.33;;;;;;;7.47;100.00;97735.09;7377995;19;20045;-69
2022/10/03 07:34:16;;;;;;;489.17;446.65;;;;;;;7.16;100.00;97733.34;7381964;19;20086;-66
2022/10/03 07:40:27;;;;;;;489.95;447.00;;;;;;;7.14;100.00;97735.22;7383674;19;20376;-59
2022/10/03 07:43:39;;;;;;;475.90;433.50;;;;;;;7.14;100.00;97734.38;7381423;19;20364;-62
2022/10/03 07:46:38;;;;;;;470.75;428.05;;;;;;;7.33;100.00;97743.72;7379262;19;20014;-64
2022/10/03 07:49:36;;;;;;;490.73;447.40;;;;;;;7.17;100.00;97732.41;7375213;19;20410;-67
2022/10/03 07:52:40;;;;;;;477.02;435.23;;;;;;;7.47;100.00;97725.47;7381442;19;20043;-65
2022/10/03 07:55:21;;;;;;;;;;;;;;;7.60;100.00;97743.94;7380087;19;20113;-66
2022/10/03 07:58:20;;;;;;;467.50;425.67;;;;;;;7.70;100.00;97726.78;7383193;19;19940;-67
2022/10/03 08:01:18;;;;;;;483.38;440.35;;;;;;;7.52;100.00;97741.75;7381145;19;20010;-69
2022/10/03 08:04:15;;;;;;;481.38;440.13;;;;;;;7.50;100.00;97742.78;7386554;19;20387;-68
2022/10/03 08:06:47;;;;;;;468.92;427.63;;;;;;;7.36;100.00;97734.88;7389647;19;20014;-67
2022/10/03 08:09:47;;;;;;;491.27;447.90;;;;;;;7.70;100.00;97714.53;7387769;19;20031;-72
2022/10/03 08:12:37;;;;;;;455.80;413.42;;;;;;;7.84;100.00;97719.84;7387961;19;20018;-68
2022/10/03 08:15:19;;;;;;;486.63;442.40;;;;;;;8.03;100.00;97730.09;7390173;19;20011;-66
2022/10/03 08:18:23;;;;;;;468.55;425.42;;;;;;;7.77;100.00;97729.00;7389161;19;20019;-75
2022/10/03 08:20:59;;;;;;;489.42;445.55;;;;;;;7.98;100.00;97725.09;7386005;19;20066;-67
2022/10/03 08:24:06;;;;;;;486.70;442.08;;;;;;;8.12;100.00;97723.47;7386300;19;20038;-63
2022/10/03 08:27:00;;;;;;;492.98;448.65;;;;;;;8.08;100.00;97731.50;7384304;19;20279;-68
2022/10/03 08:30:01;;;;;;;491.65;447.58;;;;;;;8.16;100.00;97723.19;7388749;19;20018;-66
2022/10/03 08:32:59;;;;;;;490.38;447.08;;;;;;;8.18;100.00;97742.28;7391243;19;20027;-67
2022/10/03 08:36:09;;;;;;;466.52;424.40;;;;;;;8.24;100.00;97725.34;7388849;19;20039;-67
2022/10/03 08:39:11;;;;;;;484.58;441.58;;;;;;;8.08;100.00;97710.53;7388847;19;20015;-66
2022/10/03 08:42:24;;;;;;;471.83;428.77;;;;;;;8.42;100.00;97712.00;7388346;19;20130;-61
2022/10/03 08:45:24;;;;;;;502.85;458.02;;;;;;;7.91;100.00;97722.94;7387827;19;20022;-69
2022/10/03 08:48:34;;;;;;;477.13;433.27;;;;;;;8.17;100.00;97714.41;7380347;19;20030;-65
2022/10/03 08:51:38;;;;;;;484.05;440.27;;;;;;;8.18;100.00;97726.56;7382525;19;20070;-73
2022/10/03 08:54:48;;;;;;;477.42;436.55;;;;;;;8.07;100.00;97723.72;7385800;19;20011;-67
2022/10/03 08:57:51;;;;;;;472.65;431.63;;;;;;;8.26;100.00;97731.34;7384825;19;20018;-66
2022/10/03 09:00:24;;;;;;;479.52;438.63;;;;;;;8.17;100.00;97717.03;7385364;19;20048;-68
2022/10/03 09:03:24;;;;;;;486.65;443.42;;;;;;;8.11;100.00;97730.47;7379187;19;20035;-67
2022/10/03 09:06:30;;;;;;;472.33;432.48;;;;;;;8.08;100.00;97723.63;7382795;19;20018;-67
2022/10/03 09:09:16;;;;;;;492.30;450.65;;;;;;;7.86;100.00;97724.97;7385184;19;20551;-71
2022/10/03 09:12:09;;;;;;;464.48;424.42;;;;;;;7.59;100.00;97729.16;7384670;19;20503;-70
2022/10/03 09:15:11;;;;;;;485.75;443.63;;;;;;;7.64;100.00;97735.81;7378464;19;20373;-69
2022/10/03 09:18:11;;;;;;;472.50;432.60;;;;;;;7.50;100.00;97746.22;7383546;19;20002;-68
2022/10/03 09:21:10;;;;;;;455.25;416.15;;;;;;;7.58;100.00;97746.63;7384914;19;20010;-68
2022/10/03 09:24:09;;;;;;;478.85;439.90;;;;;;;7.51;100.00;97855.25;7386170;19;20019;-67
2022/10/03 09:27:02;;;;;;;470.33;429.27;;;;;;;7.62;100.00;98025.69;7384074;19;20980;-67
2022/10/03 09:30:06;;;;;;;467.20;426.40;;;;;;;7.67;100.00;98094.38;7380031;19;20010;-78
2022/10/03 09:33:02;;;;;;;452.65;414.42;;;;;;;7.58;100.00;98086.97;7385484;19;20407;-66
2022/10/03 09:36:10;;;;;;;451.42;413.02;;;;;;;7.53;100.00;98094.22;7387816;19;20011;-70
2022/10/03 09:39:16;;;;;;;460.33;421.40;;;;;;;7.65;100.00;98156.44;7389674;19;20013;-63
2022/10/03 09:42:32;;;;;;;487.10;445.15;;;;;;;7.68;100.00;98177.22;7388499;19;20347;-65
2022/10/03 09:45:28;;;;;;;487.83;445.92;;;;;;;7.62;100.00;98166.22;7383389;19;20043;-67
2022/10/03 09:48:19;;;;;;;502.10;457.90;;;;;;;7.68;100.00;98182.47;7379183;19;20069;-67
2022/10/03 09:51:26;;;;;;;475.50;433.83;;;;;;;7.61;100.00;97746.47;7383288;19;20010;-68
2022/10/03 09:54:29;;;;;;;468.67;427.25;;;;;;;7.86;100.00;97762.50;7382006;19;20033;-66
2022/10/03 09:57:23;;;;;;;456.73;416.83;;;;;;;7.56;100.00;97764.22;7384741;19;20144;-66
2022/10/03 10:00:28;;;;;;;470.42;431.83;;;;;;;7.66;100.00;97759.31;7378044;19;20014;-64
2022/10/03 10:03:21;;;;;;;474.23;433.92;;;;;;;7.58;100.00;97764.97;7381117;19;20019;-65
2022/10/03 10:06:21;;;;;;;472.73;432.88;;;;;;;7.64;100.00;97772.47;7379743;19;20125;-78
2022/10/03 10:09:24;;;;;;;464.92;426.90;;;;;;;7.50;100.00;97767.16;7383149;19;20033;-66
2022/10/03 10:12:24;;;;;;;435.50;399.30;;;;;;;7.51;100.00;97758.41;7384080;19;20368;-63
2022/10/03 10:15:23;;;;;;;456.55;418.70;;;;;;;7.64;100.00;97761.16;7383433;19;20006;-69
2022/10/03 10:18:32;;;;;;;482.27;441.27;;;;;;;7.58;100.00;97754.47;7378351;19;20575;-67
2022/10/03 10:21:44;;;;;;;484.67;443.58;;;;;;;7.87;100.00;97756.31;7374506;19;20089;-65
2022/10/03 10:24:45;;;;;;;467.95;427.42;;;;;;;7.92;100.00;97750.81;7377037;19;20015;-66
2022/10/03 10:27:48;;;;;;;450.75;413.02;;;;;;;7.92;100.00;97756.06;7378510;19;20018;-73
2022/10/03 10:30:43;;;;;;;455.00;416.58;;;;;;;8.00;100.00;97759.94;7381623;19;20018;-66
2022/10/03 10:33:54;;;;;;;481.05;440.58;;;;;;;7.87;100.00;97758.13;7381341;19;20044;-66
2022/10/03 10:37:17;;;;;;;453.35;413.63;;;;;;;7.84;100.00;97766.16;7381913;19;20007;-65
2022/10/03 10:40:27;;;;;;;454.92;415.42;;;;;;;7.81;100.00;97777.66;7379478;19;20078;-68
2022/10/03 10:43:35;;;;;;;486.63;445.98;;;;;;;7.80;100.00;97775.09;7380657;19;20014;-56
2022/10/03 10:46:34;;;;;;;464.35;425.02;;;;;;;7.89;100.00;97767.56;7380284;19;20010;-66
2022/10/03 10:49:44;;;;;;;471.52;430.60;;;;;;;8.00;100.00;97770.41;7379623;19;20050;-68
2022/10/03 10:52:55;;;;;;;467.58;425.75;;;;;;;8.30;100.00;97773.00;7383230;19;20014;-65
2022/10/03 10:55:55;;;;;;;501.02;457.40;;;;;;;8.37;100.00;97773.50;7379072;19;20105;-67
2022/10/03 10:59:07;;;;;;;505.52;459.77;;;;;;;8.60;100.00;97770.34;7375031;19;20501;-66
2022/10/03 11:01:54;;;;;;;479.63;434.00;;;;;;;8.83;100.00;97775.88;7377075;19;20520;-64
2022/10/03 11:05:05;;;;;;;470.30;426.95;;;;;;;8.97;100.00;97746.16;7377272;19;20007;-65
2022/10/03 11:08:17;;;;;;;454.75;413.85;;;;;;;8.86;100.00;97765.19;7383502;19;20014;-64
2022/10/03 11:11:11;;;;;;;468.35;426.70;;;;;;;8.67;100.00;97761.16;7382678;19;20482;-66
2022/10/03 11:14:14;;;;;;;482.98;440.35;;;;;;;8.88;100.00;97772.94;7377702;19;20399;-66
2022/10/03 11:17:27;;;;;;;473.88;431.20;;;;;;;8.86;100.00;97777.47;7379022;19;20010;-66
2022/10/03 11:20:26;;;;;;;467.95;424.60;;;;;;;9.23;100.00;97780.34;7376922;19;20255;-67
2022/10/03 11:23:27;;;;;;;462.73;419.50;;;;;;;9.32;100.00;97779.78;7376386;19;20051;-66
2022/10/03 11:26:32;;;;;;;467.00;424.23;;;;;;;9.62;100.00;97777.00;7380304;19;20475;-62
2022/10/03 11:29:31;;;;;;;452.02;409.80;;;;;;;9.87;100.00;97790.22;7379143;19;20006;-60
2022/10/03 11:32:54;;;;;;;459.83;417.35;;;;;;;10.17;100.00;97796.06;7381322;19;20029;-66
2022/10/03 11:35:51;;;;;;;457.10;414.58;;;;;;;9.37;100.00;97793.44;7390430;19;20010;-64
2022/10/03 11:38:27;;;;;;;478.20;435.40;;;;;;;9.18;100.00;97792.88;7390004;19;20517;-63
2022/10/03 11:41:10;;;;;;;463.98;422.63;;;;;;;9.02;100.00;97797.41;7389651;19;20873;-75
2022/10/03 11:44:06;;;;;;;489.63;446.48;;;;;;;9.06;100.00;97798.06;7389072;19;20010;-66
2022/10/03 11:46:54;;;;;;;493.23;448.38;;;;;;;9.10;100.00;97802.16;7382015;19;20021;-61
2022/10/03 11:49:54;;;;;;;472.83;430.35;;;;;;;8.90;100.00;97803.41;7391703;19;20086;-69
2022/10/03 11:52:32;;;;;;;483.00;439.50;;;;;;;9.11;100.00;97809.94;7389042;19;20074;-67
2022/10/03 11:55:24;;;;;;;491.63;447.05;;;;;;;9.25;100.00;97812.56;7385511;19;20567;-65
2022/10/03 11:58:10;;;;;;;458.55;415.90;;;;;;;9.46;100.00;97805.16;7389965;19;20070;-65
2022/10/03 12:00:46;;;;;;;486.60;444.10;;;;;;;9.47;100.00;97814.72;7387400;19;20010;-66
2022/10/03 12:03:25;;;;;;;458.20;416.33;;;;;;;9.52;100.00;97818.75;7390323;19;20015;-62
2022/10/03 12:09:05;;;;;;;449.85;407.52;;;;;;;10.10;100.00;97807.97;7389484;19;20022;-75
2022/10/03 12:11:40;;;;;;;479.88;436.88;;;;;;;10.01;100.00;97798.03;7389224;19;20007;-66
2022/10/03 12:14:28;;;;;;;462.83;419.40;;;;;;;9.90;100.00;97805.78;7384247;19;20017;-75
2022/10/03 12:17:09;;;;;;;452.73;410.20;;;;;;;10.24;100.00;97798.22;7389835;19;20023;-67
2022/10/03 12:19:54;;;;;;;458.38;414.35;;;;;;;10.84;100.00;97788.00;7382680;19;20007;-66
2022/10/03 12:22:45;;;;;;;460.95;417.98;;;;;;;10.35;100.00;97789.59;7388480;19;20014;-66
2022/10/03 12:25:29;;;;;;;474.13;430.08;;;;;;;10.51;100.00;97783.19;7388309;19;20014;-67
2022/10/03 12:28:10;;;;;;;445.33;402.55;;;;;;;10.48;100.00;97782.59;7389055;19;20021;-59
2022/10/03 12:30:50;;;;;;;442.23;400.65;;;;;;;10.61;100.00;97817.63;7388720;19;20013;-66
2022/10/03 12:33:32;;;;;;;468.45;424.42;;;;;;;10.72;100.00;97794.09;7390519;19;20007;-68
2022/10/03 12:36:09;;;;;;;455.75;411.75;;;;;;;10.26;100.00;97806.84;7390004;19;20018;-65
2022/10/03 12:39:09;;;;;;;461.52;418.05;;;;;;;10.19;100.00;97789.81;7389771;19;20018;-66
2022/10/03 12:42:04;;;;;;;470.25;425.50;;;;;;;10.77;100.00;97797.25;7388395;19;20018;-59
2022/10/03 12:44:47;;;;;;;467.23;423.40;;;;;;;10.55;100.00;97795.19;7387549;19;20037;-66
2022/10/03 12:47:29;;;;;;;457.48;414.08;;;;;;;10.50;100.00;97785.94;7390690;19;20015;-73
2022/10/03 12:50:06;;;;;;;468.20;424.17;;;;;;;10.64;100.00;97793.75;7391848;19;20025;-65
2022/10/03 12:52:43;;;;;;;478.02;433.33;;;;;;;10.50;100.00;97806.97;7390548;19;20750;-75
2022/10/03 12:55:27;;;;;;;479.17;435.05;;;;;;;10.20;100.00;97798.50;7388765;19;20024;-64
2022/10/03 12:58:07;;;;;;;473.60;430.23;;;;;;;10.24;100.00;97803.47;7385397;19;20378;-74
2022/10/03 13:00:42;;;;;;;472.85;429.13;;;;;;;10.13;100.00;97820.88;7387050;19;20019;-66
2022/10/03 13:03:30;;;;;;;455.10;413.48;;;;;;;10.63;100.00;97802.59;7388903;19;20006;-64
2022/10/03 13:06:32;;;;;;;467.92;425.77;;;;;;;10.31;100.00;97803.91;7389084;19;20015;-66
2022/10/03 13:09:18;;;;;;;464.50;420.90;;;;;;;10.71;100.00;97816.09;7388065;19;20039;-66